Time;durP1;ratioP1;P1;durP2;ratioP2;P2;SDS_P1;SDS_P2;PMS_P1;PMS_P2;Temp;Humidity;BMP_temperature;BMP_pressure;BME280_temperature;BME280_humidity;BME280_pressure;Samples;Min_cycle;Max_cycle;Signal;HPM_P1;HPM_P2
2022/07/21 00:01:52;;;;;;;14.50;5.65;;;20.30;99.90;;;;;;4997645;28;20054;-69
2022/07/21 00:04:18;;;;;;;12.88;6.05;;;20.30;99.90;;;;;;4992366;28;20122;-68
2022/07/21 00:06:45;;;;;;;15.98;5.95;;;20.30;99.90;;;;;;4989589;28;20510;-69
2022/07/21 00:09:12;;;;;;;14.10;5.95;;;20.30;99.90;;;;;;5019623;28;20039;-69
2022/07/21 00:11:39;;;;;;;13.13;6.05;;;20.30;99.90;;;;;;4985766;28;20053;-69
2022/07/21 00:14:09;;;;;;;13.35;6.38;;;20.20;99.90;;;;;;4987733;28;20050;-69
2022/07/21 00:16:35;;;;;;;14.82;6.72;;;20.20;99.90;;;;;;4996373;28;20042;-69
2022/07/21 00:19:00;;;;;;;16.20;6.80;;;20.20;99.90;;;;;;4989992;28;20047;-69
2022/07/21 00:21:27;;;;;;;13.80;6.95;;;20.20;99.90;;;;;;4989189;28;20042;-69
2022/07/21 00:23:54;;;;;;;13.95;6.45;;;20.20;99.90;;;;;;4986402;28;20076;-69
2022/07/21 00:26:20;;;;;;;11.77;6.75;;;20.20;99.90;;;;;;4985583;28;20050;-69
2022/07/21 00:28:46;;;;;;;15.00;7.22;;;20.20;99.90;;;;;;5003373;28;20031;-69
2022/07/21 00:31:12;;;;;;;12.20;6.80;;;20.20;99.90;;;;;;4994114;28;20035;-69
2022/07/21 00:33:37;;;;;;;14.57;7.78;;;20.20;99.90;;;;;;4969982;28;20045;-66
2022/07/21 00:36:03;;;;;;;15.45;8.10;;;20.20;99.90;;;;;;4990516;28;20051;-67
2022/07/21 00:38:29;;;;;;;15.95;7.93;;;20.20;99.90;;;;;;5015645;28;20043;-68
2022/07/21 00:40:55;;;;;;;14.68;8.05;;;20.10;99.90;;;;;;4988050;28;20064;-69
2022/07/21 00:43:20;;;;;;;17.90;7.63;;;20.10;99.90;;;;;;4988033;28;20084;-70
2022/07/21 00:45:46;;;;;;;15.38;7.82;;;20.10;99.90;;;;;;4986525;28;20058;-69
2022/07/21 00:48:12;;;;;;;13.63;8.05;;;19.90;99.90;;;;;;4986924;28;20441;-69
2022/07/21 00:50:38;;;;;;;18.13;8.50;;;20.00;99.90;;;;;;4987694;28;20081;-68
2022/07/21 00:53:04;;;;;;;16.88;9.50;;;20.00;99.90;;;;;;4987567;28;20122;-68
2022/07/21 00:55:30;;;;;;;16.13;8.43;;;20.00;99.90;;;;;;4986669;28;20042;-70
2022/07/21 00:57:56;;;;;;;16.58;8.35;;;19.90;99.90;;;;;;4987351;28;20160;-69
2022/07/21 01:00:26;;;;;;;15.90;8.23;;;19.90;99.90;;;;;;4985393;28;20096;-68
2022/07/21 01:02:52;;;;;;;19.98;8.52;;;19.90;99.90;;;;;;4987043;28;20443;-68
2022/07/21 01:05:19;;;;;;;18.38;9.30;;;19.90;99.90;;;;;;4991354;28;20129;-69
2022/07/21 01:07:52;;;;;;;19.90;10.38;;;19.80;99.90;;;;;;5011903;28;20050;-69
2022/07/21 01:10:22;;;;;;;15.90;8.68;;;19.80;99.90;;;;;;4988018;28;20406;-68
2022/07/21 01:12:48;;;;;;;17.45;9.70;;;19.70;99.90;;;;;;4988069;28;20402;-68
2022/07/21 01:15:17;;;;;;;21.95;9.85;;;19.70;99.90;;;;;;5002448;28;20038;-70
2022/07/21 01:17:44;;;;;;;17.52;9.23;;;19.70;99.90;;;;;;4986388;28;20514;-69
2022/07/21 01:20:13;;;;;;;16.60;10.07;;;19.70;99.90;;;;;;4987236;28;20089;-69
2022/07/21 01:22:42;;;;;;;23.00;10.00;;;19.60;99.90;;;;;;4986309;28;20407;-70
2022/07/21 01:25:08;;;;;;;16.00;10.18;;;19.60;99.90;;;;;;4986373;28;20038;-69
2022/07/21 01:27:34;;;;;;;17.08;9.75;;;19.60;99.90;;;;;;4986225;28;20414;-70
2022/07/21 01:30:00;;;;;;;18.35;10.27;;;19.50;99.90;;;;;;5002024;28;20287;-70
2022/07/21 01:32:26;;;;;;;18.48;10.07;;;19.50;99.90;;;;;;4986478;28;20085;-70
2022/07/21 01:34:52;;;;;;;22.95;10.43;;;19.30;99.90;;;;;;4985912;28;20074;-71
2022/07/21 01:37:28;;;;;;;15.55;9.38;;;19.50;99.90;;;;;;4985483;28;20038;-70
2022/07/21 01:42:38;;;;;;;19.60;9.27;;;19.40;99.90;;;;;;5022773;28;20449;-71
2022/07/21 01:45:05;;;;;;;16.52;8.93;;;19.40;99.90;;;;;;5008078;28;20042;-69
2022/07/21 01:47:34;;;;;;;15.90;10.18;;;19.40;99.90;;;;;;4985755;28;20054;-70
2022/07/21 01:50:00;;;;;;;16.48;10.55;;;19.40;99.90;;;;;;4985031;28;20765;-70
2022/07/21 01:52:26;;;;;;;20.38;10.48;;;19.40;99.90;;;;;;4986369;28;20046;-69
2022/07/21 01:54:52;;;;;;;18.85;10.00;;;19.30;99.90;;;;;;4985785;28;20050;-70
2022/07/21 01:57:17;;;;;;;20.27;10.80;;;19.30;99.90;;;;;;4986079;28;20038;-72
2022/07/21 01:59:44;;;;;;;20.73;9.98;;;19.30;99.90;;;;;;5002595;28;20398;-69
2022/07/21 02:02:10;;;;;;;19.80;10.85;;;19.30;99.90;;;;;;4985991;28;20175;-70
2022/07/21 02:04:39;;;;;;;19.10;11.13;;;19.30;99.90;;;;;;4986187;28;20054;-69
2022/07/21 02:07:04;;;;;;;19.33;11.45;;;19.30;99.90;;;;;;4968267;28;20054;-69
2022/07/21 02:09:33;;;;;;;22.98;11.95;;;19.20;99.90;;;;;;4969642;28;20046;-69
2022/07/21 02:11:59;;;;;;;24.60;12.50;;;19.30;99.90;;;;;;4985343;28;20042;-69
2022/07/21 02:14:24;;;;;;;20.88;13.23;;;19.20;99.90;;;;;;4985562;28;20521;-69
2022/07/21 02:16:50;;;;;;;17.55;11.30;;;19.20;99.90;;;;;;4984891;28;20062;-68
2022/07/21 02:19:16;;;;;;;18.58;11.70;;;19.20;99.90;;;;;;4987498;28;20045;-69
2022/07/21 02:21:42;;;;;;;19.27;11.32;;;19.20;99.90;;;;;;4985426;28;20125;-69
2022/07/21 02:24:07;;;;;;;22.55;12.02;;;19.20;99.90;;;;;;4986088;28;20035;-69
2022/07/21 02:26:33;;;;;;;17.42;11.40;;;19.20;99.90;;;;;;5001077;28;20455;-69
2022/07/21 02:28:59;;;;;;;21.52;11.82;;;19.20;99.90;;;;;;4985350;28;20031;-69
2022/07/21 02:31:24;;;;;;;16.98;10.85;;;19.20;99.90;;;;;;4986825;28;20151;-69
2022/07/21 02:33:50;;;;;;;18.88;11.18;;;19.20;99.90;;;;;;5000973;28;20329;-69
2022/07/21 02:36:16;;;;;;;22.55;12.25;;;19.30;99.90;;;;;;4985121;28;20050;-69
2022/07/21 02:38:41;;;;;;;27.75;13.35;;;19.30;99.90;;;;;;4969215;28;20076;-70
2022/07/21 02:41:07;;;;;;;21.17;12.32;;;19.30;99.90;;;;;;4968884;28;20094;-69
2022/07/21 02:43:33;;;;;;;23.20;13.45;;;19.30;99.90;;;;;;4992647;28;20030;-70
2022/07/21 02:45:59;;;;;;;24.13;13.40;;;19.30;99.90;;;;;;4996327;28;20039;-71
2022/07/21 02:48:24;;;;;;;23.95;12.43;;;19.20;99.90;;;;;;4984459;28;20459;-70
2022/07/21 02:50:50;;;;;;;19.95;13.05;;;19.20;99.90;;;;;;4985382;28;20433;-69
2022/07/21 02:53:19;;;;;;;17.52;11.85;;;19.20;99.90;;;;;;4968662;28;20093;-69
2022/07/21 02:55:48;;;;;;;17.95;11.48;;;19.20;99.90;;;;;;4987946;28;20042;-70
2022/07/21 02:58:20;;;;;;;25.25;14.70;;;19.20;99.90;;;;;;4985586;28;20058;-69
2022/07/21 03:00:51;;;;;;;23.70;12.18;;;19.20;99.90;;;;;;4984016;28;20050;-69
2022/07/21 03:03:16;;;;;;;20.10;11.60;;;19.20;99.90;;;;;;4984590;28;20061;-70
2022/07/21 03:05:42;;;;;;;20.13;13.27;;;19.20;99.90;;;;;;4985829;28;20039;-70
2022/07/21 03:08:09;;;;;;;19.08;12.07;;;19.20;99.90;;;;;;4984445;28;20091;-70
2022/07/21 03:10:36;;;;;;;23.17;13.88;;;19.30;99.90;;;;;;4984916;28;20070;-69
2022/07/21 03:13:05;;;;;;;21.90;13.25;;;19.30;99.90;;;;;;4985557;28;20141;-70
2022/07/21 03:15:31;;;;;;;24.15;14.05;;;19.30;99.90;;;;;;4967658;28;20054;-70
2022/07/21 03:17:57;;;;;;;24.98;14.95;;;19.20;99.90;;;;;;5000697;28;20419;-70
2022/07/21 03:20:24;;;;;;;30.88;15.93;;;19.20;99.90;;;;;;5001736;28;20054;-69
2022/07/21 03:22:50;;;;;;;24.88;15.68;;;19.20;99.90;;;;;;4984533;28;20065;-69
2022/07/21 03:25:16;;;;;;;23.27;13.95;;;19.20;99.90;;;;;;4985343;28;20115;-69
2022/07/21 03:27:43;;;;;;;21.50;14.40;;;19.10;99.90;;;;;;4984809;28;20046;-69
2022/07/21 03:30:09;;;;;;;23.45;15.05;;;19.10;99.90;;;;;;4984356;28;20053;-69
2022/07/21 03:32:35;;;;;;;19.88;14.18;;;19.10;99.90;;;;;;4968558;28;20050;-69
2022/07/21 03:35:01;;;;;;;22.95;15.60;;;19.10;99.90;;;;;;5005421;28;20058;-69
2022/07/21 03:37:27;;;;;;;23.67;15.40;;;19.10;99.90;;;;;;5023524;28;20050;-69
2022/07/21 03:39:53;;;;;;;29.20;16.02;;;19.10;99.90;;;;;;5000666;28;20117;-69
2022/07/21 03:42:20;;;;;;;24.15;16.13;;;19.10;99.90;;;;;;4968498;28;20184;-69
2022/07/21 03:44:45;;;;;;;26.35;15.95;;;19.10;99.90;;;;;;4985042;28;20067;-69
2022/07/21 03:47:11;;;;;;;21.20;14.23;;;19.20;99.90;;;;;;4985009;28;20533;-68
2022/07/21 03:49:37;;;;;;;25.65;15.95;;;19.10;99.90;;;;;;4993081;28;20096;-69
2022/07/21 03:52:03;;;;;;;23.38;16.45;;;19.10;99.90;;;;;;4984649;28;20046;-68
2022/07/21 03:54:28;;;;;;;23.42;16.00;;;19.10;99.90;;;;;;4980352;28;20049;-69
2022/07/21 03:56:54;;;;;;;20.33;15.38;;;19.10;99.90;;;;;;4998556;28;20412;-69
2022/07/21 03:59:20;;;;;;;21.52;15.20;;;19.10;99.90;;;;;;4994028;28;20121;-68
2022/07/21 04:01:45;;;;;;;23.05;16.30;;;19.10;99.90;;;;;;4994050;28;20054;-69
2022/07/21 04:04:11;;;;;;;26.77;17.95;;;19.10;99.90;;;;;;4999441;28;20073;-69
2022/07/21 04:06:37;;;;;;;26.40;18.30;;;19.10;99.90;;;;;;4972623;28;20039;-70
2022/07/21 04:09:03;;;;;;;28.02;17.83;;;19.10;99.90;;;;;;4990760;28;20114;-69
2022/07/21 04:11:30;;;;;;;22.80;17.17;;;19.10;99.90;;;;;;5014782;28;20076;-68
2022/07/21 04:13:56;;;;;;;24.15;17.08;;;19.10;99.90;;;;;;4982958;28;20509;-69
2022/07/21 04:16:22;;;;;;;24.17;17.33;;;19.10;99.90;;;;;;5021251;28;20140;-69
2022/07/21 04:18:47;;;;;;;27.83;19.40;;;19.00;99.90;;;;;;5018870;28;20058;-70
2022/07/21 04:21:13;;;;;;;26.98;19.05;;;19.10;99.90;;;;;;5015352;28;20125;-68
2022/07/21 04:23:39;;;;;;;24.75;18.20;;;19.10;99.90;;;;;;5001728;28;20046;-70
2022/07/21 04:26:05;;;;;;;26.42;19.23;;;19.00;99.90;;;;;;5034771;28;20050;-69
2022/07/21 04:28:31;;;;;;;31.48;21.50;;;19.10;99.90;;;;;;5002132;28;20051;-67
2022/07/21 04:30:56;;;;;;;28.25;19.17;;;19.10;99.90;;;;;;5019643;28;20046;-69
2022/07/21 04:33:22;;;;;;;28.38;19.58;;;19.10;99.90;;;;;;5005727;28;20141;-68
2022/07/21 04:35:48;;;;;;;25.73;19.98;;;19.10;99.90;;;;;;5025012;28;20064;-68
2022/07/21 04:38:14;;;;;;;25.63;19.67;;;19.10;99.90;;;;;;5021293;28;20039;-68
2022/07/21 04:40:39;;;;;;;28.20;21.83;;;19.10;99.90;;;;;;4999683;28;20085;-69
2022/07/21 04:43:05;;;;;;;27.17;21.48;;;19.10;99.90;;;;;;4987650;28;20447;-67
2022/07/21 04:45:31;;;;;;;27.65;21.02;;;19.20;99.90;;;;;;4993783;28;20488;-69
2022/07/21 04:47:57;;;;;;;29.02;22.20;;;19.20;99.90;;;;;;4995193;28;20126;-67
2022/07/21 04:50:26;;;;;;;32.33;23.60;;;19.20;99.90;;;;;;4985091;28;20113;-69
2022/07/21 04:52:52;;;;;;;27.73;22.27;;;19.20;99.90;;;;;;5017050;28;20475;-67
2022/07/21 04:55:19;;;;;;;27.60;21.27;;;19.20;99.90;;;;;;4987195;28;20410;-67
2022/07/21 04:57:47;;;;;;;25.92;20.65;;;19.20;99.90;;;;;;4987125;28;20052;-69
2022/07/21 05:00:20;;;;;;;25.95;20.75;;;19.20;99.90;;;;;;4989092;28;20046;-69
2022/07/21 05:02:46;;;;;;;28.75;21.58;;;19.20;99.90;;;;;;4987630;28;20126;-67
2022/07/21 05:05:13;;;;;;;27.52;21.42;;;19.20;99.90;;;;;;4970355;28;20034;-67
2022/07/21 05:07:39;;;;;;;27.90;21.73;;;19.20;99.90;;;;;;4986929;28;20038;-69
2022/07/21 05:10:10;;;;;;;27.67;20.10;;;19.20;99.90;;;;;;4991856;28;20051;-69
2022/07/21 05:12:37;;;;;;;23.25;19.77;;;19.20;99.90;;;;;;4993816;28;20402;-69
2022/07/21 05:15:04;;;;;;;28.00;21.20;;;19.20;99.90;;;;;;4970790;28;20502;-69
2022/07/21 05:17:30;;;;;;;28.05;20.75;;;19.10;99.90;;;;;;4988874;28;20062;-69
2022/07/21 05:19:56;;;;;;;25.80;19.35;;;19.10;99.90;;;;;;5046575;28;20438;-70
2022/07/21 05:22:22;;;;;;;25.90;19.88;;;19.20;99.90;;;;;;4990631;28;20054;-69
2022/07/21 05:24:47;;;;;;;21.73;18.40;;;19.10;99.90;;;;;;4988357;28;20046;-69
2022/07/21 05:27:13;;;;;;;26.20;19.02;;;19.10;99.90;;;;;;5003244;28;20072;-69
2022/07/21 05:29:39;;;;;;;21.85;17.80;;;19.10;99.90;;;;;;4969681;28;20418;-69
2022/07/21 05:32:05;;;;;;;24.05;18.95;;;19.10;99.90;;;;;;5019624;28;20081;-68
2022/07/21 05:34:30;;;;;;;22.30;18.17;;;19.10;99.90;;;;;;5019033;28;20046;-69
2022/07/21 05:36:57;;;;;;;20.58;17.63;;;19.10;99.90;;;;;;4996806;28;20042;-68
2022/07/21 05:39:23;;;;;;;22.65;18.17;;;19.20;99.90;;;;;;4986291;28;20042;-68
2022/07/21 05:41:48;;;;;;;20.85;18.25;;;19.10;99.90;;;;;;4985349;28;20061;-68
2022/07/21 05:44:14;;;;;;;24.20;18.83;;;19.20;99.90;;;;;;4986587;28;20057;-68
2022/07/21 05:46:40;;;;;;;21.92;18.02;;;19.20;99.90;;;;;;4987045;28;20054;-68
2022/07/21 05:49:05;;;;;;;21.05;17.40;;;19.20;99.90;;;;;;4985421;28;20779;-67
2022/07/21 05:51:31;;;;;;;22.08;18.33;;;19.20;99.90;;;;;;4986243;28;20049;-68
2022/07/21 05:53:57;;;;;;;22.38;18.35;;;19.20;99.90;;;;;;4986406;28;20046;-69
2022/07/21 05:56:22;;;;;;;21.25;17.42;;;19.20;99.90;;;;;;4986427;28;20053;-68
2022/07/21 05:58:48;;;;;;;23.02;17.98;;;19.20;99.90;;;;;;4993124;28;20046;-68
2022/07/21 06:01:16;;;;;;;23.48;16.92;;;19.30;99.90;;;;;;4993639;28;20141;-68
2022/07/21 06:03:48;;;;;;;21.70;18.00;;;19.30;99.90;;;;;;5014146;28;20050;-68
2022/07/21 06:06:16;;;;;;;24.30;17.38;;;19.30;99.90;;;;;;5010390;28;20046;-68
2022/07/21 06:08:44;;;;;;;19.83;16.90;;;19.30;99.90;;;;;;5022561;28;20050;-68
2022/07/21 06:11:11;;;;;;;21.08;16.50;;;19.40;99.90;;;;;;5024043;28;20046;-68
2022/07/21 06:13:37;;;;;;;20.83;17.65;;;19.50;99.90;;;;;;5021808;28;20057;-68
2022/07/21 06:16:04;;;;;;;23.77;18.73;;;19.50;99.90;;;;;;5022847;28;20691;-68
2022/07/21 06:18:30;;;;;;;23.20;18.73;;;19.60;99.90;;;;;;5020283;28;20089;-68
2022/07/21 06:20:56;;;;;;;23.67;17.73;;;19.70;99.90;;;;;;5027919;28;20422;-69
2022/07/21 06:23:22;;;;;;;22.73;18.05;;;19.70;99.90;;;;;;5027459;28;20056;-68
2022/07/21 06:25:48;;;;;;;25.58;18.92;;;19.70;99.90;;;;;;5019664;28;20038;-69
2022/07/21 06:28:14;;;;;;;27.48;19.33;;;19.70;99.90;;;;;;5008426;28;20046;-69
2022/07/21 06:30:39;;;;;;;24.35;20.15;;;19.70;99.90;;;;;;5019085;28;20046;-68
2022/07/21 06:33:05;;;;;;;23.50;17.83;;;19.70;99.90;;;;;;5009483;28;20042;-68
2022/07/21 06:35:31;;;;;;;21.63;17.83;;;19.70;99.90;;;;;;5026719;28;20039;-71
2022/07/21 06:37:57;;;;;;;22.98;17.95;;;19.70;99.90;;;;;;5001309;28;20050;-69
2022/07/21 06:40:22;;;;;;;23.27;19.02;;;19.70;99.90;;;;;;4997305;28;20039;-68
2022/07/21 06:42:48;;;;;;;22.75;19.42;;;19.80;99.90;;;;;;5013931;28;20052;-69
2022/07/21 06:45:14;;;;;;;26.85;20.27;;;19.80;99.90;;;;;;5018030;28;20048;-68
2022/07/21 06:47:40;;;;;;;25.48;19.55;;;19.80;99.90;;;;;;5014112;28;20060;-68
2022/07/21 06:50:07;;;;;;;23.60;19.95;;;19.70;99.90;;;;;;5018131;28;20062;-68
2022/07/21 06:52:34;;;;;;;26.33;20.15;;;19.70;99.90;;;;;;5016846;28;20048;-68
2022/07/21 06:55:01;;;;;;;26.10;21.55;;;19.70;99.90;;;;;;5006040;28;20049;-68
2022/07/21 06:57:26;;;;;;;25.10;20.83;;;19.70;99.90;;;;;;5000965;28;20731;-68
2022/07/21 06:59:52;;;;;;;29.85;22.45;;;19.70;99.90;;;;;;5012770;28;20038;-68
2022/07/21 07:02:18;;;;;;;24.50;21.15;;;19.80;99.90;;;;;;5017797;28;20266;-68
2022/07/21 07:04:44;;;;;;;27.90;23.23;;;19.80;99.90;;;;;;5018468;28;20970;-68
2022/07/21 07:07:10;;;;;;;25.85;21.65;;;19.90;99.90;;;;;;5021069;28;20303;-68
2022/07/21 07:09:36;;;;;;;31.35;24.08;;;20.00;99.90;;;;;;5015780;28;21195;-68
2022/07/21 07:12:08;;;;;;;28.90;23.20;;;20.00;99.90;;;;;;5006052;28;20046;-68
2022/07/21 07:14:35;;;;;;;30.50;23.38;;;20.00;99.90;;;;;;5004171;28;20054;-67
2022/07/21 07:17:02;;;;;;;30.02;24.00;;;20.10;99.90;;;;;;4983749;28;20088;-68
2022/07/21 07:19:29;;;;;;;32.13;25.52;;;20.20;99.90;;;;;;4984056;28;20133;-69
2022/07/21 07:21:55;;;;;;;32.00;24.77;;;20.30;99.90;;;;;;4983858;28;20053;-67
2022/07/21 07:24:21;;;;;;;28.02;24.08;;;20.40;99.90;;;;;;4985001;28;20050;-68
2022/07/21 07:26:46;;;;;;;29.23;24.55;;;20.50;99.90;;;;;;4985306;28;20042;-67
2022/07/21 07:29:13;;;;;;;28.73;24.05;;;20.60;99.90;;;;;;4984552;28;20046;-68
2022/07/21 07:31:39;;;;;;;29.38;23.83;;;20.70;99.90;;;;;;4983699;28;20066;-68
2022/07/21 07:34:05;;;;;;;28.80;23.17;;;20.70;99.90;;;;;;4984739;28;20043;-67
2022/07/21 07:36:31;;;;;;;27.38;24.27;;;20.80;99.90;;;;;;4983749;28;20419;-68
2022/07/21 07:38:57;;;;;;;28.25;24.77;;;20.80;99.90;;;;;;4986144;28;20126;-68
2022/07/21 07:41:25;;;;;;;29.25;24.33;;;20.80;99.90;;;;;;4967629;28;20477;-67
2022/07/21 07:43:51;;;;;;;27.63;24.58;;;20.90;99.90;;;;;;4982047;28;20046;-67
2022/07/21 07:46:18;;;;;;;28.13;22.67;;;20.90;99.90;;;;;;4984254;28;20050;-68
2022/07/21 07:48:44;;;;;;;25.13;22.23;;;20.90;99.90;;;;;;5015755;28;20037;-67
2022/07/21 07:51:11;;;;;;;30.48;23.50;;;20.80;99.90;;;;;;4985906;28;20136;-68
2022/07/21 07:53:37;;;;;;;25.92;21.27;;;20.80;99.90;;;;;;4966952;28;20533;-68
2022/07/21 07:56:03;;;;;;;25.92;22.27;;;20.80;99.90;;;;;;4984954;28;20053;-67
2022/07/21 07:58:29;;;;;;;25.40;21.05;;;20.80;99.90;;;;;;4983628;28;20038;-68
2022/07/21 08:00:55;;;;;;;26.40;22.45;;;20.80;99.90;;;;;;4983526;28;20055;-67
2022/07/21 08:03:21;;;;;;;25.63;21.85;;;20.90;99.90;;;;;;4983121;28;20392;-70
2022/07/21 08:05:47;;;;;;;26.65;22.02;;;20.80;99.90;;;;;;4986776;28;20071;-67
2022/07/21 08:08:14;;;;;;;25.42;22.13;;;20.80;99.90;;;;;;4971200;28;20050;-68
2022/07/21 08:10:40;;;;;;;26.02;22.77;;;20.80;99.90;;;;;;4987147;28;20164;-67
2022/07/21 08:13:08;;;;;;;28.38;23.42;;;20.90;99.90;;;;;;4987394;28;21494;-67
2022/07/21 08:15:34;;;;;;;25.75;22.95;;;20.80;99.90;;;;;;4986769;28;20042;-67
2022/07/21 08:18:00;;;;;;;28.48;23.98;;;20.70;99.90;;;;;;4985380;28;20062;-67
2022/07/21 08:20:26;;;;;;;27.73;22.30;;;20.50;99.90;;;;;;4970431;28;20145;-68
2022/07/21 08:22:51;;;;;;;25.73;21.73;;;20.50;99.90;;;;;;5002583;28;20484;-67
2022/07/21 08:25:17;;;;;;;26.13;22.58;;;20.50;99.90;;;;;;4990248;28;20057;-70
2022/07/21 08:27:43;;;;;;;28.15;23.42;;;20.60;99.90;;;;;;4987037;28;20047;-68
2022/07/21 08:30:09;;;;;;;30.70;24.80;;;20.70;99.90;;;;;;4977431;28;20042;-67
2022/07/21 08:32:35;;;;;;;28.98;25.15;;;20.70;99.90;;;;;;4994087;28;20062;-67
2022/07/21 08:35:01;;;;;;;30.23;23.80;;;20.70;99.90;;;;;;4982273;28;20077;-68
2022/07/21 08:37:27;;;;;;;29.70;24.92;;;20.70;99.90;;;;;;4980953;28;20133;-70
2022/07/21 08:39:52;;;;;;;28.70;23.25;;;20.70;99.90;;;;;;4963442;28;20035;-67
2022/07/21 08:42:18;;;;;;;31.50;26.90;;;20.70;99.90;;;;;;4980651;28;20138;-68
2022/07/21 08:44:44;;;;;;;30.80;27.30;;;20.80;99.90;;;;;;4979759;28;20077;-70
2022/07/21 08:47:10;;;;;;;32.08;27.42;;;20.80;99.90;;;;;;4964338;28;20042;-67
2022/07/21 08:49:36;;;;;;;33.58;26.60;;;20.90;99.90;;;;;;4982153;28;20141;-68
2022/07/21 08:52:05;;;;;;;31.63;27.55;;;21.00;99.90;;;;;;4981988;28;20038;-67
2022/07/21 08:54:32;;;;;;;34.17;29.38;;;21.10;99.90;;;;;;4981655;28;20046;-67
2022/07/21 08:56:58;;;;;;;34.55;27.38;;;21.10;99.90;;;;;;4982273;28;20133;-68
2022/07/21 08:59:23;;;;;;;30.65;26.58;;;21.10;99.90;;;;;;4980157;28;20137;-69
2022/07/21 09:01:49;;;;;;;35.08;28.27;;;21.20;99.90;;;;;;4980532;28;21260;-67
2022/07/21 09:04:33;;;;;;;38.45;30.55;;;21.30;99.90;;;;;;4982284;28;20104;-68
2022/07/21 09:07:01;;;;;;;35.83;28.67;;;21.30;99.90;;;;;;4979113;28;20082;-70
2022/07/21 09:09:29;;;;;;;35.58;30.48;;;21.30;99.90;;;;;;4980709;28;20049;-69
2022/07/21 09:11:56;;;;;;;36.63;31.88;;;21.30;99.90;;;;;;4978167;28;20049;-67
2022/07/21 09:14:28;;;;;;;34.35;30.15;;;21.30;99.90;;;;;;5013559;27;20049;-67
2022/07/21 09:16:57;;;;;;;38.38;30.70;;;21.40;99.90;;;;;;4976978;28;20054;-68
2022/07/21 09:19:24;;;;;;;39.03;32.03;;;21.30;99.90;;;;;;4985626;28;20050;-68
2022/07/21 09:21:51;;;;;;;37.88;30.85;;;21.40;99.90;;;;;;4968846;28;20124;-67
2022/07/21 09:24:31;;;;;;;37.42;31.80;;;21.30;99.90;;;;;;4985973;28;20042;-69
2022/07/21 09:27:08;;;;;;;39.58;33.35;;;21.30;99.90;;;;;;4987537;28;20435;-68
2022/07/21 09:29:37;;;;;;;39.38;32.10;;;21.20;99.90;;;;;;5002075;28;20046;-68
2022/07/21 09:32:25;;;;;;;40.35;33.08;;;21.20;99.90;;;;;;4984732;28;20495;-67
2022/07/21 09:35:05;;;;;;;42.22;34.83;;;21.20;99.90;;;;;;4984371;28;20171;-67
2022/07/21 09:37:32;;;;;;;44.95;36.22;;;21.20;99.90;;;;;;4986802;28;20034;-67
2022/07/21 09:40:02;;;;;;;46.05;37.90;;;21.10;99.90;;;;;;4985558;28;20422;-67
2022/07/21 09:42:37;;;;;;;42.67;35.88;;;21.00;99.90;;;;;;5001388;28;20511;-68
2022/07/21 09:45:08;;;;;;;47.58;36.83;;;20.90;99.90;;;;;;4986957;28;20086;-69
2022/07/21 09:47:37;;;;;;;47.55;37.75;;;20.90;99.90;;;;;;4985575;28;20053;-67
2022/07/21 09:50:04;;;;;;;47.28;37.70;;;21.00;99.90;;;;;;4983491;28;20544;-68
2022/07/21 09:52:33;;;;;;;41.40;36.15;;;21.00;99.90;;;;;;4986132;28;20050;-68
2022/07/21 09:55:02;;;;;;;41.20;35.63;;;21.10;99.90;;;;;;4987481;28;20053;-68
2022/07/21 09:57:29;;;;;;;46.28;35.38;;;21.20;99.90;;;;;;4987675;28;20399;-67
2022/07/21 09:59:56;;;;;;;43.53;35.85;;;21.20;99.90;;;;;;4985973;28;20414;-67
2022/07/21 10:02:23;;;;;;;40.83;33.60;;;21.20;99.90;;;;;;4984978;28;20042;-68
2022/07/21 10:05:07;;;;;;;42.95;36.15;;;21.30;99.90;;;;;;4986289;28;20053;-68
2022/07/21 10:07:36;;;;;;;46.10;36.65;;;21.20;99.90;;;;;;4986831;28;20046;-67
2022/07/21 10:10:03;;;;;;;42.60;36.90;;;21.30;99.90;;;;;;4987742;28;20179;-67
2022/07/21 10:12:29;;;;;;;42.70;35.20;;;21.20;99.90;;;;;;4969512;28;20057;-69
2022/07/21 10:14:55;;;;;;;41.80;35.88;;;21.30;99.90;;;;;;4969544;28;20046;-67
2022/07/21 10:17:22;;;;;;;43.25;35.60;;;21.30;99.90;;;;;;4985037;28;20077;-67
2022/07/21 10:20:06;;;;;;;46.15;36.90;;;21.30;99.90;;;;;;4986475;28;20049;-67
2022/07/21 10:22:59;;;;;;;39.45;34.88;;;21.30;99.90;;;;;;4987292;28;20042;-68
2022/07/21 10:25:26;;;;;;;39.83;34.83;;;21.30;99.90;;;;;;4985473;28;20078;-67
2022/07/21 10:28:10;;;;;;;42.75;35.17;;;21.30;99.90;;;;;;4984257;28;20065;-68
2022/07/21 10:30:47;;;;;;;44.83;35.83;;;21.30;99.90;;;;;;4986510;28;20496;-68
2022/07/21 10:33:15;;;;;;;44.45;36.88;;;21.30;99.90;;;;;;4985896;28;20072;-69
2022/07/21 10:35:43;;;;;;;42.25;34.85;;;21.30;99.90;;;;;;4969709;28;20466;-67
2022/07/21 10:38:31;;;;;;;44.97;37.03;;;21.40;99.90;;;;;;4986866;28;20049;-66
2022/07/21 10:40:58;;;;;;;42.28;35.42;;;21.60;99.90;;;;;;4985998;28;20042;-69
2022/07/21 10:43:24;;;;;;;39.03;33.45;;;21.70;99.90;;;;;;4969807;28;20111;-67
2022/07/21 10:45:50;;;;;;;43.83;35.13;;;21.90;99.90;;;;;;4985623;28;20069;-67
2022/07/21 10:48:38;;;;;;;40.15;32.90;;;22.00;99.90;;;;;;5038409;28;20044;-68
2022/07/21 10:51:08;;;;;;;42.22;33.17;;;22.10;99.90;;;;;;4967816;28;20066;-68
2022/07/21 10:53:34;;;;;;;40.50;32.28;;;22.10;99.90;;;;;;4985219;28;20059;-66
2022/07/21 10:55:59;;;;;;;37.50;30.63;;;22.20;99.90;;;;;;4969923;28;20047;-67
2022/07/21 10:58:33;;;;;;;36.88;30.23;;;22.20;99.90;;;;;;5003621;28;20069;-68
2022/07/21 11:01:05;;;;;;;34.55;29.48;;;22.20;99.90;;;;;;4992645;28;20109;-69
2022/07/21 11:03:39;;;;;;;33.08;28.98;;;22.30;99.90;;;;;;4999012;28;20504;-68
2022/07/21 11:06:25;;;;;;;37.28;29.75;;;22.30;99.90;;;;;;5030196;28;20446;-67
2022/07/21 11:08:52;;;;;;;34.42;29.45;;;22.30;99.90;;;;;;5023264;28;20611;-68
2022/07/21 11:11:25;;;;;;;35.17;29.58;;;22.30;99.90;;;;;;5027246;28;20071;-67
2022/07/21 11:14:04;;;;;;;31.75;26.08;;;22.40;99.90;;;;;;5018795;28;20107;-68
2022/07/21 11:16:54;;;;;;;32.80;26.48;;;22.40;99.90;;;;;;5003017;28;20068;-69
2022/07/21 11:19:34;;;;;;;26.90;23.98;;;22.40;99.90;;;;;;5013067;28;20062;-67
2022/07/21 11:22:24;;;;;;;25.55;21.73;;;22.40;99.90;;;;;;5020627;28;20536;-67
2022/07/21 11:25:07;;;;;;;22.63;19.27;;;22.40;99.90;;;;;;5018606;28;20534;-67
2022/07/21 11:27:40;;;;;;;21.92;18.02;;;22.40;99.90;;;;;;5020724;28;20058;-67
2022/07/21 11:30:08;;;;;;;20.60;17.88;;;22.40;99.90;;;;;;5004792;28;20045;-67
2022/07/21 11:32:34;;;;;;;21.27;16.70;;;22.40;99.90;;;;;;5035439;28;20501;-69
2022/07/21 11:35:03;;;;;;;18.20;15.95;;;22.30;99.90;;;;;;5006895;28;20426;-69
2022/07/21 11:37:32;;;;;;;17.30;15.43;;;22.30;99.90;;;;;;5001217;28;20039;-68
2022/07/21 11:39:58;;;;;;;19.35;14.73;;;22.30;99.90;;;;;;5029045;28;20063;-66
2022/07/21 11:42:26;;;;;;;18.48;14.82;;;22.40;99.90;;;;;;5027676;28;20096;-68
2022/07/21 11:44:52;;;;;;;16.35;14.13;;;22.40;99.90;;;;;;5023511;28;20046;-66
2022/07/21 11:47:20;;;;;;;17.42;13.55;;;22.50;99.90;;;;;;5030005;28;20061;-67
2022/07/21 11:49:46;;;;;;;15.30;13.07;;;22.50;99.90;;;;;;5028221;28;20039;-67
2022/07/21 11:52:20;;;;;;;16.35;12.98;;;22.60;99.90;;;;;;5023775;28;20048;-69
2022/07/21 11:54:47;;;;;;;16.95;12.43;;;22.60;99.90;;;;;;4994179;28;20050;-67
2022/07/21 11:57:15;;;;;;;13.10;10.95;;;22.70;99.90;;;;;;5011369;28;20047;-68
2022/07/21 11:59:41;;;;;;;13.20;11.10;;;22.70;99.90;;;;;;4995987;28;20043;-67
2022/07/21 12:02:10;;;;;;;15.27;10.80;;;22.70;99.90;;;;;;4998636;28;20092;-68
2022/07/21 12:04:39;;;;;;;13.98;10.43;;;22.70;99.90;;;;;;5004107;28;20053;-67
2022/07/21 12:07:12;;;;;;;15.90;10.82;;;22.70;99.90;;;;;;5018751;28;20503;-68
2022/07/21 12:09:39;;;;;;;16.30;11.32;;;22.70;99.90;;;;;;4996737;28;20042;-69
2022/07/21 12:12:05;;;;;;;16.10;13.85;;;22.80;99.90;;;;;;5004880;28;20110;-68
2022/07/21 12:14:50;;;;;;;18.02;13.18;;;22.80;99.90;;;;;;5025235;28;20103;-69
2022/07/21 12:17:36;;;;;;;15.57;13.32;;;22.90;99.90;;;;;;4986075;28;20142;-68
2022/07/21 12:20:04;;;;;;;18.30;13.35;;;22.90;99.90;;;;;;5019025;28;20054;-68
2022/07/21 12:22:46;;;;;;;16.30;11.98;;;22.90;99.90;;;;;;4987049;28;20410;-68
2022/07/21 12:25:13;;;;;;;13.98;11.23;;;23.00;99.90;;;;;;5017903;28;20450;-68
2022/07/21 12:27:42;;;;;;;13.95;11.68;;;23.10;99.90;;;;;;5026038;28;20039;-68
2022/07/21 12:30:10;;;;;;;13.77;11.82;;;23.20;99.90;;;;;;5016915;28;20041;-68
2022/07/21 12:32:48;;;;;;;13.73;11.50;;;23.30;99.90;;;;;;4988869;28;20042;-68
2022/07/21 12:35:23;;;;;;;13.02;11.13;;;23.30;99.90;;;;;;5010174;28;20118;-68